Time;durP1;ratioP1;P1;durP2;ratioP2;P2;SDS_P1;SDS_P2;PMS_P1;PMS_P2;Temp;Humidity;BMP_temperature;BMP_pressure;BME280_temperature;BME280_humidity;BME280_pressure;Samples;Min_cycle;Max_cycle;Signal;HPM_P1;HPM_P2
2022/09/27 00:00:38;;;;;;;6.85;4.13;;;;;;;7.89;87.49;99255.75;5026063;28;20034;-68
2022/09/27 00:03:03;;;;;;;5.82;3.95;;;;;;;7.90;87.22;99263.47;5026267;28;20056;-67
2022/09/27 00:05:29;;;;;;;5.13;3.78;;;;;;;7.85;87.74;99267.00;5026085;28;20030;-68
2022/09/27 00:07:55;;;;;;;5.68;4.22;;;;;;;7.83;87.82;99264.44;5026214;28;20026;-69
2022/09/27 00:10:21;;;;;;;7.75;3.83;;;;;;;7.72;86.83;99259.44;5023818;28;20041;-68
2022/09/27 00:12:47;;;;;;;5.55;3.75;;;;;;;7.76;87.06;99263.69;5020038;28;20049;-67
2022/09/27 00:15:13;;;;;;;6.05;4.43;;;;;;;7.78;87.38;99261.06;5025812;28;20022;-68
2022/09/27 00:17:39;;;;;;;7.65;4.50;;;;;;;7.62;86.99;99260.50;5025885;28;20115;-68
2022/09/27 00:20:09;;;;;;;5.55;4.20;;;;;;;7.68;87.00;99275.88;5025903;28;20089;-68
2022/09/27 00:22:34;;;;;;;4.50;3.97;;;;;;;7.41;87.10;99231.63;5025994;28;20072;-69
2022/09/27 00:25:00;;;;;;;5.03;3.78;;;;;;;7.72;87.22;99261.19;5026018;28;20030;-69
2022/09/27 00:27:26;;;;;;;6.03;4.25;;;;;;;7.74;86.85;99262.03;5022283;28;20408;-68
2022/09/27 00:29:52;;;;;;;5.38;4.22;;;;;;;7.68;87.55;99268.13;5025841;28;20057;-68
2022/09/27 00:32:18;;;;;;;6.82;4.25;;;;;;;7.62;87.86;99270.78;5009880;28;20034;-68
2022/09/27 00:34:44;;;;;;;6.75;4.32;;;;;;;7.55;87.45;99262.34;5017031;28;20026;-69
2022/09/27 00:37:10;;;;;;;6.07;4.20;;;;;;;7.57;87.54;99265.72;5025864;28;20206;-68
2022/09/27 00:39:38;;;;;;;9.07;4.60;;;;;;;7.58;87.13;99254.56;5025474;28;20098;-68
2022/09/27 00:42:05;;;;;;;6.50;4.40;;;;;;;7.56;87.90;99261.44;5025733;28;20088;-68
2022/09/27 00:44:36;;;;;;;4.07;3.55;;;;;;;7.61;87.02;99266.53;5025290;28;20064;-68
2022/09/27 00:47:11;;;;;;;4.60;4.15;;;;;;;7.56;87.02;99255.44;5024467;28;20033;-68
2022/09/27 00:49:43;;;;;;;7.35;4.60;;;;;;;7.57;87.60;99267.47;5025168;28;20026;-68
2022/09/27 00:52:37;;;;;;;6.68;4.18;;;;;;;7.59;88.10;99276.84;5007855;28;20330;-68
2022/09/27 00:55:12;;;;;;;7.07;4.35;;;;;;;7.54;88.31;99264.91;5008672;28;20080;-69
2022/09/27 00:57:38;;;;;;;7.03;4.10;;;;;;;7.55;87.22;99269.19;5007232;28;20030;-68
2022/09/27 01:00:08;;;;;;;5.72;4.65;;;;;;;7.53;87.54;99258.06;5025074;28;20029;-68
2022/09/27 01:02:37;;;;;;;5.35;4.10;;;;;;;7.58;88.05;99266.56;5025043;28;20033;-68
2022/09/27 01:05:05;;;;;;;7.35;4.72;;;;;;;7.55;88.99;99259.75;5025328;28;20314;-68
2022/09/27 01:07:30;;;;;;;8.57;4.18;;;;;;;7.69;88.41;99261.25;5024796;28;20025;-68
2022/09/27 01:09:57;;;;;;;6.20;4.20;;;;;;;7.73;88.37;99266.31;5025106;28;20352;-68
2022/09/27 01:12:37;;;;;;;5.97;4.35;;;;;;;7.71;87.89;99262.94;5024574;28;20422;-68
2022/09/27 01:15:21;;;;;;;5.97;4.65;;;;;;;7.62;87.63;99260.50;5021626;28;20048;-68
2022/09/27 01:18:05;;;;;;;5.10;3.88;;;;;;;7.63;88.64;99257.03;5018394;28;20042;-68
2022/09/27 01:21:04;;;;;;;5.07;4.00;;;;;;;7.64;87.46;99258.75;5024490;28;20052;-68
2022/09/27 01:23:45;;;;;;;10.57;4.70;;;;;;;7.59;87.32;99260.53;5024482;28;20048;-69
2022/09/27 01:26:35;;;;;;;7.18;3.95;;;;;;;7.57;88.44;99272.63;5024553;28;20029;-69
2022/09/27 01:29:39;;;;;;;5.43;3.90;;;;;;;7.53;87.25;99268.38;5024775;28;20040;-68
2022/09/27 01:32:07;;;;;;;6.63;4.75;;;;;;;7.34;88.16;99253.22;5024230;28;20034;-69
2022/09/27 01:35:01;;;;;;;6.10;4.60;;;;;;;7.24;88.08;99243.94;5024891;28;20045;-68
2022/09/27 01:37:41;;;;;;;7.40;4.07;;;;;;;7.21;87.02;99228.50;5005003;28;20038;-68
2022/09/27 01:40:46;;;;;;;7.07;4.45;;;;;;;7.34;87.95;99260.94;5004749;28;20050;-68
2022/09/27 01:43:17;;;;;;;6.88;4.60;;;;;;;7.29;87.64;99247.25;5004671;28;20045;-68
2022/09/27 01:46:05;;;;;;;5.82;4.10;;;;;;;7.19;87.65;99232.84;5021598;28;20029;-68
2022/09/27 01:48:43;;;;;;;7.68;3.92;;;;;;;7.30;87.52;99256.69;5024141;28;20030;-69
2022/09/27 01:51:20;;;;;;;4.90;4.05;;;;;;;7.32;87.26;99260.09;5024278;28;20037;-69
2022/09/27 01:53:51;;;;;;;6.72;4.10;;;;;;;7.20;86.69;99244.84;5024211;28;20034;-68
2022/09/27 01:56:38;;;;;;;5.03;4.10;;;;;;;7.28;86.36;99262.75;5023978;28;20034;-68
2022/09/27 01:59:13;;;;;;;7.43;4.38;;;;;;;7.24;86.67;99259.38;5023795;28;20026;-68
2022/09/27 02:01:41;;;;;;;5.70;4.10;;;;;;;7.17;86.89;99257.75;5023866;28;20112;-68
2022/09/27 02:04:12;;;;;;;6.68;3.85;;;;;;;7.08;86.68;99244.16;5024075;28;20087;-68
2022/09/27 02:06:46;;;;;;;4.65;4.07;;;;;;;7.14;86.35;99252.63;5024128;28;20030;-67
2022/09/27 02:09:27;;;;;;;5.20;3.88;;;;;;;7.22;86.74;99269.69;5023760;28;20053;-67
2022/09/27 02:11:59;;;;;;;5.13;3.97;;;;;;;7.04;85.89;99241.63;5024126;28;20037;-68
2022/09/27 02:14:33;;;;;;;7.35;4.10;;;;;;;7.16;86.28;99256.91;5023671;28;20026;-67
2022/09/27 02:17:04;;;;;;;7.20;4.70;;;;;;;6.97;86.25;99229.72;5023938;28;20072;-67
2022/09/27 02:19:51;;;;;;;8.63;4.43;;;;;;;7.18;87.20;99274.91;5023685;28;20030;-67
2022/09/27 02:22:32;;;;;;;6.28;4.78;;;;;;;6.78;86.52;99216.25;5004006;28;20045;-66
2022/09/27 02:25:03;;;;;;;11.85;7.70;;;;;;;7.08;86.51;99269.91;5022720;28;20037;-68
2022/09/27 02:27:36;;;;;;;15.30;8.40;;;;;;;7.00;86.75;99245.97;5023565;28;20081;-68
2022/09/27 02:30:07;;;;;;;8.07;4.70;;;;;;;6.97;86.76;99266.63;5023659;28;20052;-68
2022/09/27 02:32:33;;;;;;;6.00;5.10;;;;;;;6.99;87.09;99272.59;5023517;28;20029;-68
2022/09/27 02:35:21;;;;;;;6.72;4.88;;;;;;;6.93;86.41;99264.94;5023807;28;20314;-69
2022/09/27 02:37:47;;;;;;;5.90;4.40;;;;;;;7.01;86.26;99264.84;5005305;28;20103;-69
2022/09/27 02:40:13;;;;;;;7.85;4.65;;;;;;;7.03;87.46;99266.53;5023494;28;20034;-69
2022/09/27 02:42:41;;;;;;;8.05;4.57;;;;;;;6.95;87.08;99254.63;5023474;28;20068;-69
2022/09/27 02:45:08;;;;;;;8.00;5.38;;;;;;;7.01;86.64;99267.41;5023327;28;20029;-69
2022/09/27 02:48:02;;;;;;;7.22;4.80;;;;;;;6.90;86.85;99257.28;5023274;28;20038;-69
2022/09/27 02:50:43;;;;;;;7.65;4.18;;;;;;;6.96;85.89;99275.19;5018579;28;20114;-68
2022/09/27 02:53:47;;;;;;;5.50;4.32;;;;;;;6.92;86.36;99276.13;5013412;28;20061;-67
2022/09/27 02:56:42;;;;;;;5.35;3.90;;;;;;;6.91;86.27;99267.56;4956680;28;20237;-67
2022/09/27 02:59:37;;;;;;;7.63;4.70;;;;;;;6.74;86.38;99254.91;5023307;28;20025;-68
2022/09/27 03:02:27;;;;;;;6.82;4.88;;;;;;;6.72;85.98;99277.22;5006445;28;20038;-68
2022/09/27 03:04:57;;;;;;;11.75;7.35;;;;;;;6.60;86.13;99251.66;5016132;28;20036;-67
2022/09/27 03:07:24;;;;;;;6.28;4.60;;;;;;;6.85;86.38;99279.63;5023206;28;20202;-67
2022/09/27 03:09:51;;;;;;;8.32;4.97;;;;;;;6.87;86.87;99272.78;5023639;28;20034;-67
2022/09/27 03:12:21;;;;;;;5.85;4.80;;;;;;;6.89;86.43;99278.72;5027057;28;20093;-67
2022/09/27 03:14:48;;;;;;;6.63;4.72;;;;;;;6.82;86.01;99266.81;5027153;28;20345;-68
2022/09/27 03:17:14;;;;;;;5.70;4.15;;;;;;;6.89;86.63;99291.59;5018857;28;20308;-68
2022/09/27 03:19:40;;;;;;;8.13;4.82;;;;;;;6.88;86.61;99288.19;5007459;28;20106;-69
2022/09/27 03:22:05;;;;;;;6.78;4.68;;;;;;;6.81;86.81;99283.13;5026610;28;20088;-68
2022/09/27 03:24:31;;;;;;;5.30;4.57;;;;;;;6.81;86.71;99296.00;5026822;28;20037;-68
2022/09/27 03:26:57;;;;;;;6.70;4.30;;;;;;;6.81;86.28;99294.28;5027156;28;20034;-67
2022/09/27 03:29:22;;;;;;;7.50;5.53;;;;;;;6.78;86.85;99288.31;5020113;28;20042;-68
2022/09/27 03:31:48;;;;;;;8.77;6.43;;;;;;;6.81;86.23;99283.13;5007498;28;20038;-67
2022/09/27 03:34:13;;;;;;;8.25;4.95;;;;;;;6.84;87.13;99290.81;5026800;28;20325;-67
2022/09/27 03:36:39;;;;;;;10.73;5.20;;;;;;;6.83;86.45;99294.25;5026760;28;20190;-68
2022/09/27 03:39:05;;;;;;;6.82;5.40;;;;;;;6.64;86.02;99255.91;5024437;28;20220;-67
2022/09/27 03:41:30;;;;;;;9.63;6.15;;;;;;;6.79;86.39;99282.31;5026552;28;20030;-67
2022/09/27 03:43:58;;;;;;;10.02;7.05;;;;;;;6.83;85.96;99289.13;5026005;28;20021;-67
2022/09/27 03:46:24;;;;;;;6.47;5.20;;;;;;;6.78;86.21;99288.31;5009512;28;20030;-67
2022/09/27 03:48:50;;;;;;;8.68;4.57;;;;;;;6.61;87.17;99283.38;5026111;28;20030;-67
2022/09/27 03:51:15;;;;;;;7.10;4.88;;;;;;;6.66;87.59;99287.59;5026303;28;20092;-67
2022/09/27 03:53:41;;;;;;;8.73;5.45;;;;;;;6.73;87.36;99294.38;5026175;28;20071;-67
2022/09/27 03:56:07;;;;;;;9.80;5.05;;;;;;;6.71;86.12;99284.94;5008850;28;20041;-67
2022/09/27 03:58:33;;;;;;;7.20;5.30;;;;;;;6.79;86.32;99292.59;5025961;28;20318;-67
2022/09/27 04:00:58;;;;;;;8.13;5.22;;;;;;;6.84;87.09;99304.53;5025786;28;20034;-66
2022/09/27 04:03:25;;;;;;;6.97;4.88;;;;;;;6.84;86.75;99299.38;5020706;28;20083;-67
2022/09/27 04:05:52;;;;;;;7.53;4.95;;;;;;;6.73;87.16;99296.94;5025659;28;20033;-67
2022/09/27 04:08:18;;;;;;;8.65;5.45;;;;;;;6.76;87.46;99302.94;5025655;28;20225;-68
2022/09/27 04:10:43;;;;;;;7.07;5.63;;;;;;;6.76;86.96;99300.38;5026155;28;20085;-67
2022/09/27 04:13:09;;;;;;;7.15;5.65;;;;;;;6.81;87.24;99302.00;5025877;28;20041;-67
2022/09/27 04:15:38;;;;;;;9.15;5.18;;;;;;;6.86;87.55;99301.94;5025812;28;20033;-68
2022/09/27 04:18:04;;;;;;;6.70;4.68;;;;;;;6.88;88.07;99300.19;5002164;28;20058;-68
2022/09/27 04:20:30;;;;;;;7.35;5.05;;;;;;;6.78;87.55;99291.72;4997847;28;20313;-68
2022/09/27 04:22:56;;;;;;;6.70;4.85;;;;;;;6.85;87.28;99298.50;5015717;28;20030;-67
2022/09/27 04:25:21;;;;;;;8.63;5.05;;;;;;;6.90;87.88;99298.47;5016441;28;20026;-68
2022/09/27 04:27:48;;;;;;;8.65;4.95;;;;;;;6.87;87.63;99290.78;5015825;28;20038;-68
2022/09/27 04:30:14;;;;;;;8.00;5.40;;;;;;;6.93;87.82;99302.69;5015653;28;20028;-68
2022/09/27 04:32:41;;;;;;;6.68;5.13;;;;;;;6.91;87.74;99303.59;5015801;28;20218;-68
2022/09/27 04:37:52;;;;;;;6.85;4.65;;;;;;;6.87;88.46;99298.50;5016915;28;20042;-66
2022/09/27 04:40:19;;;;;;;7.22;5.57;;;;;;;6.90;88.08;99301.03;5016545;28;20052;-66
2022/09/27 04:42:44;;;;;;;8.30;6.43;;;;;;;6.91;88.52;99298.44;5017212;28;20026;-67
2022/09/27 04:45:12;;;;;;;8.07;5.18;;;;;;;6.98;88.07;99301.75;5014431;28;20080;-68
2022/09/27 04:47:43;;;;;;;8.80;5.82;;;;;;;6.93;88.66;99293.28;5015423;28;20026;-67
2022/09/27 04:50:08;;;;;;;9.20;5.67;;;;;;;7.00;88.85;99306.94;5015474;28;20018;-68
2022/09/27 04:52:34;;;;;;;8.88;5.70;;;;;;;7.05;88.96;99300.84;5016202;28;20026;-67
2022/09/27 04:55:00;;;;;;;8.93;6.30;;;;;;;7.08;88.76;99305.94;5014972;28;20061;-68
2022/09/27 04:57:25;;;;;;;8.82;6.28;;;;;;;7.07;88.75;99298.25;5015461;28;20076;-67
2022/09/27 04:59:51;;;;;;;9.98;6.40;;;;;;;7.08;89.56;99298.22;5017662;28;20040;-68
2022/09/27 05:02:16;;;;;;;10.20;6.63;;;;;;;7.11;89.34;99301.63;5024483;28;20030;-67
2022/09/27 05:04:42;;;;;;;9.05;6.55;;;;;;;7.12;89.20;99311.06;5025014;28;20255;-67
2022/09/27 05:07:08;;;;;;;9.85;6.43;;;;;;;7.20;88.92;99317.78;5024746;28;20313;-68
2022/09/27 05:09:34;;;;;;;10.98;8.10;;;;;;;7.13;89.57;99308.44;5019561;28;20022;-68
2022/09/27 05:11:59;;;;;;;12.50;9.23;;;;;;;7.16;89.91;99313.56;5014842;28;20026;-68
2022/09/27 05:14:25;;;;;;;14.77;8.63;;;;;;;7.23;90.42;99320.31;5024612;28;20068;-68
2022/09/27 05:16:52;;;;;;;9.63;7.47;;;;;;;7.27;89.46;99300.53;5024681;28;20038;-67
2022/09/27 05:19:18;;;;;;;12.50;8.02;;;;;;;7.45;89.49;99311.44;5024265;28;20030;-68
2022/09/27 05:21:43;;;;;;;13.50;8.18;;;;;;;7.47;90.00;99312.25;5015519;28;20048;-68
2022/09/27 05:24:09;;;;;;;13.35;8.32;;;;;;;7.43;90.74;99296.84;5014872;28;20068;-68
2022/09/27 05:26:36;;;;;;;12.52;7.72;;;;;;;7.58;90.85;99308.66;5020758;28;20018;-66
2022/09/27 05:29:02;;;;;;;13.63;7.50;;;;;;;7.65;90.85;99311.97;5024401;28;20317;-67
2022/09/27 05:31:28;;;;;;;8.73;6.82;;;;;;;7.77;90.56;99318.69;5024373;28;20042;-67
2022/09/27 05:33:54;;;;;;;12.18;7.75;;;;;;;7.83;90.37;99315.16;5023539;28;20048;-67
2022/09/27 05:36:20;;;;;;;12.38;7.50;;;;;;;7.96;91.48;99321.81;5013983;28;20078;-67
2022/09/27 05:38:45;;;;;;;11.48;7.43;;;;;;;8.05;91.06;99311.34;5012795;28;20038;-68
2022/09/27 05:41:12;;;;;;;9.05;6.85;;;;;;;8.15;90.50;99308.59;5023761;28;20032;-68
2022/09/27 05:43:37;;;;;;;8.93;7.60;;;;;;;8.23;90.63;99304.16;5024378;28;20025;-69
2022/09/27 05:46:04;;;;;;;10.20;7.60;;;;;;;8.35;91.85;99306.53;5024375;28;20352;-68
2022/09/27 05:48:30;;;;;;;10.02;7.38;;;;;;;8.48;91.63;99304.59;5006443;28;20053;-68
2022/09/27 05:50:56;;;;;;;12.18;10.10;;;;;;;8.50;91.25;99294.25;5024075;28;20325;-68
2022/09/27 05:53:22;;;;;;;9.35;7.72;;;;;;;8.60;91.48;99303.50;5023610;28;20034;-68
2022/09/27 05:55:48;;;;;;;15.25;8.32;;;;;;;8.61;91.37;99293.13;5024017;28;20044;-68
2022/09/27 05:58:15;;;;;;;18.48;13.23;;;;;;;8.70;91.61;99307.59;5023267;28;20026;-68
2022/09/27 06:00:42;;;;;;;20.30;13.93;;;;;;;8.73;91.73;99302.34;5023910;28;20022;-68
2022/09/27 06:03:10;;;;;;;24.08;17.00;;;;;;;8.66;92.33;99298.19;5024020;28;20029;-69
2022/09/27 06:05:38;;;;;;;23.67;17.50;;;;;;;8.77;93.02;99306.56;5024051;28;20050;-69
2022/09/27 06:08:09;;;;;;;21.83;16.83;;;;;;;8.71;92.74;99291.22;5023831;28;20168;-68
2022/09/27 06:10:36;;;;;;;21.50;16.58;;;;;;;8.98;92.03;99294.97;5024034;28;20096;-68
2022/09/27 06:13:08;;;;;;;20.40;16.83;;;;;;;9.07;92.12;99296.50;5023830;28;20384;-68
2022/09/27 06:15:36;;;;;;;20.70;17.52;;;;;;;8.94;91.87;99290.75;5023850;28;20332;-68
2022/09/27 06:18:10;;;;;;;19.92;17.27;;;;;;;9.04;91.18;99268.16;5008930;28;20023;-69
2022/09/27 06:20:37;;;;;;;17.90;15.50;;;;;;;9.15;91.10;99291.19;5009688;28;20300;-68
2022/09/27 06:23:17;;;;;;;19.52;16.08;;;;;;;9.28;92.26;99278.84;5023809;28;20036;-68
2022/09/27 06:25:44;;;;;;;21.20;15.75;;;;;;;9.27;91.83;99285.72;5023427;28;20040;-68
2022/09/27 06:28:12;;;;;;;19.23;15.07;;;;;;;9.35;91.16;99290.72;5023511;28;20025;-70
2022/09/27 06:30:44;;;;;;;19.88;14.00;;;;;;;9.38;91.46;99275.16;5023610;28;20064;-70
2022/09/27 06:33:12;;;;;;;15.48;13.85;;;;;;;9.54;90.13;99285.13;5023468;28;20025;-67
2022/09/27 06:35:38;;;;;;;15.52;13.82;;;;;;;9.76;90.03;99288.03;5023317;28;20216;-69
2022/09/27 06:38:06;;;;;;;16.60;14.70;;;;;;;9.74;90.28;99275.13;5023374;28;20045;-67
2022/09/27 06:40:32;;;;;;;15.05;13.10;;;;;;;9.91;89.93;99276.47;5005689;28;20306;-67
2022/09/27 06:43:02;;;;;;;20.60;16.55;;;;;;;9.65;89.47;99281.38;5023402;28;20034;-68
2022/09/27 06:45:30;;;;;;;18.08;14.95;;;;;;;9.57;88.55;99274.72;5023379;28;20041;-68
2022/09/27 06:47:56;;;;;;;17.73;15.07;;;;;;;9.62;88.90;99278.00;5023194;28;20030;-68
2022/09/27 06:50:22;;;;;;;18.17;14.73;;;;;;;9.85;88.37;99267.97;5012856;28;20032;-68
2022/09/27 06:52:48;;;;;;;18.60;15.13;;;;;;;9.96;88.34;99261.66;5013523;28;20093;-68
2022/09/27 06:55:15;;;;;;;19.65;14.75;;;;;;;10.04;87.09;99274.41;5014852;28;20026;-68
2022/09/27 07:00:27;;;;;;;21.20;16.00;;;;;;;10.09;88.09;99272.53;5010737;28;20021;-68
2022/09/27 07:02:55;;;;;;;18.45;16.25;;;;;;;10.18;87.11;99267.97;5015589;28;20053;-68
2022/09/27 07:05:20;;;;;;;18.17;16.23;;;;;;;10.39;87.43;99265.75;5014326;28;20029;-68
2022/09/27 07:07:52;;;;;;;16.27;14.55;;;;;;;10.33;86.50;99273.63;5012202;28;20121;-68
2022/09/27 07:10:18;;;;;;;16.90;15.13;;;;;;;10.29;85.75;99272.00;5013897;28;20109;-68
2022/09/27 07:12:47;;;;;;;18.35;15.52;;;;;;;10.31;85.31;99275.41;5014972;28;20287;-68
2022/09/27 07:15:14;;;;;;;23.17;17.92;;;;;;;10.17;85.59;99279.19;5014686;28;20093;-68
2022/09/27 07:17:41;;;;;;;21.40;17.38;;;;;;;10.39;86.61;99272.63;5013866;28;20041;-68
2022/09/27 07:20:07;;;;;;;22.48;16.83;;;;;;;10.36;85.65;99289.97;5014212;28;20127;-68
2022/09/27 07:22:38;;;;;;;17.55;14.52;;;;;;;10.28;84.31;99291.03;5012290;28;20046;-68
2022/09/27 07:25:04;;;;;;;16.45;14.70;;;;;;;10.28;84.26;99259.97;5021326;28;20060;-68
2022/09/27 07:27:32;;;;;;;17.27;14.95;;;;;;;10.48;84.92;99296.53;5022899;28;20026;-68
2022/09/27 07:29:57;;;;;;;16.65;14.35;;;;;;;10.62;85.50;99303.94;5023131;28;20030;-71
2022/09/27 07:32:23;;;;;;;18.45;15.60;;;;;;;10.36;84.44;99297.72;5022832;28;20033;-70
2022/09/27 07:34:48;;;;;;;20.23;17.38;;;;;;;10.44;84.60;99292.34;5020082;28;20018;-69
2022/09/27 07:37:14;;;;;;;20.65;15.45;;;;;;;10.41;83.45;99294.16;5005395;28;20074;-68
2022/09/27 07:39:39;;;;;;;17.83;15.82;;;;;;;10.59;83.52;99288.50;5022650;28;20045;-69
2022/09/27 07:42:05;;;;;;;19.25;15.23;;;;;;;10.53;83.87;99286.91;5022865;28;20056;-69
2022/09/27 07:44:31;;;;;;;15.15;13.43;;;;;;;10.21;83.41;99289.50;5022692;28;20056;-69
2022/09/27 07:46:57;;;;;;;21.40;16.35;;;;;;;10.31;84.33;99290.94;5022841;28;20026;-69
2022/09/27 07:49:23;;;;;;;20.02;16.27;;;;;;;10.38;84.34;99292.50;5018332;28;20088;-69
2022/09/27 07:51:49;;;;;;;19.42;15.63;;;;;;;10.42;84.52;99288.94;5017553;28;20618;-69
2022/09/27 07:54:14;;;;;;;18.63;14.68;;;;;;;10.61;83.88;99286.69;5022755;28;20033;-69
2022/09/27 07:56:40;;;;;;;17.65;12.88;;;;;;;10.61;82.39;99283.25;5023626;28;20045;-69
2022/09/27 07:59:05;;;;;;;16.85;12.63;;;;;;;10.50;81.14;99287.00;5017895;28;20018;-69
2022/09/27 08:01:31;;;;;;;19.25;14.80;;;;;;;10.41;81.66;99276.88;5017421;28;20034;-69
2022/09/27 08:03:57;;;;;;;16.45;13.82;;;;;;;10.58;81.15;99283.34;5021071;28;20037;-68
2022/09/27 08:06:23;;;;;;;20.05;15.45;;;;;;;10.59;80.24;99285.91;5016588;28;20026;-68
2022/09/27 08:08:49;;;;;;;19.52;16.25;;;;;;;10.73;81.00;99290.69;5015251;28;20041;-69
2022/09/27 08:11:17;;;;;;;18.88;16.58;;;;;;;10.40;80.75;99264.84;5017314;28;20338;-68
2022/09/27 08:13:44;;;;;;;23.77;19.05;;;;;;;10.58;80.62;99283.34;5015883;28;20018;-68
2022/09/27 08:16:10;;;;;;;23.13;19.27;;;;;;;10.77;80.81;99284.50;5019159;28;20110;-68
2022/09/27 08:18:36;;;;;;;24.70;19.00;;;;;;;10.90;81.08;99278.97;5017062;28;20022;-68
2022/09/27 08:21:03;;;;;;;24.08;18.75;;;;;;;10.90;79.93;99290.19;5015855;28;20026;-68
2022/09/27 08:23:29;;;;;;;21.02;17.98;;;;;;;11.22;79.59;99288.38;5021487;28;20042;-68
2022/09/27 08:25:59;;;;;;;20.23;16.90;;;;;;;11.46;79.37;99283.31;5019412;28;20029;-68
2022/09/27 08:28:26;;;;;;;23.60;18.17;;;;;;;11.64;78.98;99285.31;5020849;28;20037;-68
2022/09/27 08:30:51;;;;;;;18.30;14.88;;;;;;;11.64;75.33;99282.72;5017571;28;20038;-69
2022/09/27 08:33:17;;;;;;;18.20;14.30;;;;;;;11.54;76.24;99286.53;5017432;28;20071;-69
2022/09/27 08:35:43;;;;;;;22.52;16.55;;;;;;;11.61;76.95;99282.00;5016373;28;20044;-68
2022/09/27 08:38:10;;;;;;;19.83;15.05;;;;;;;11.77;75.86;99280.59;5015983;28;20056;-68
2022/09/27 08:41:09;;;;;;;28.35;20.77;;;;;;;11.37;76.21;99276.69;5023864;28;20218;-69
2022/09/27 08:43:56;;;;;;;28.20;21.17;;;;;;;11.33;75.70;99272.50;5021917;28;20042;-69
2022/09/27 08:46:46;;;;;;;22.40;16.30;;;;;;;11.48;72.76;99278.94;5023052;28;20076;-68
2022/09/27 08:49:30;;;;;;;23.58;16.98;;;;;;;11.57;71.99;99271.72;5018383;28;20022;-69
2022/09/27 08:51:57;;;;;;;26.67;19.33;;;;;;;11.40;73.81;99276.59;5018316;28;20037;-68
2022/09/27 08:54:31;;;;;;;19.80;16.63;;;;;;;11.35;73.83;99271.53;5017896;28;20187;-69
2022/09/27 08:57:09;;;;;;;24.42;20.20;;;;;;;11.69;74.67;99280.84;5014035;28;20025;-69
2022/09/27 08:59:46;;;;;;;24.70;19.77;;;;;;;11.85;73.64;99250.03;5017359;28;20030;-68
2022/09/27 09:02:20;;;;;;;23.92;19.42;;;;;;;12.05;70.91;99262.38;5017797;28;20188;-68
2022/09/27 09:04:50;;;;;;;22.70;18.58;;;;;;;12.64;70.63;99265.53;5014240;28;20026;-67
2022/09/27 09:07:31;;;;;;;21.27;17.58;;;;;;;12.48;70.58;99277.34;5023691;28;20018;-68
2022/09/27 09:13:55;;;;;;;17.75;14.43;;;;;;;13.17;69.56;99260.91;5022905;28;20033;-69
2022/09/27 09:16:43;;;;;;;15.82;12.50;;;;;;;12.71;70.02;99266.13;5024666;28;20053;-69
2022/09/27 09:19:46;;;;;;;12.77;10.05;;;;;;;12.20;70.05;99280.91;5024765;28;20050;-69
2022/09/27 09:22:36;;;;;;;12.90;9.63;;;;;;;12.07;69.35;99285.69;5018027;28;20068;-70
2022/09/27 09:25:20;;;;;;;16.02;10.48;;;;;;;11.74;71.56;99273.78;5020047;28;20096;-69
2022/09/27 09:28:06;;;;;;;12.30;10.63;;;;;;;11.55;71.68;99285.63;5024821;28;20030;-69
2022/09/27 09:30:55;;;;;;;16.15;11.00;;;;;;;11.82;71.85;99280.47;5024358;28;20046;-69
2022/09/27 09:33:29;;;;;;;14.68;10.40;;;;;;;11.34;72.79;99280.25;5024532;28;20057;-69
2022/09/27 09:36:18;;;;;;;14.27;10.93;;;;;;;11.49;73.49;99285.84;5024452;28;20034;-69
2022/09/27 09:38:56;;;;;;;15.65;9.57;;;;;;;11.63;74.52;99264.63;5006162;28;20061;-69
2022/09/27 09:41:31;;;;;;;13.20;10.82;;;;;;;11.70;73.95;99260.94;5021843;28;20038;-69
2022/09/27 09:44:15;;;;;;;12.77;10.93;;;;;;;11.55;72.80;99270.91;5012584;28;20089;-70
2022/09/27 09:46:46;;;;;;;14.77;11.40;;;;;;;11.62;71.31;99268.13;5004831;28;20041;-69
2022/09/27 09:49:38;;;;;;;14.57;12.00;;;;;;;11.75;72.90;99274.63;5020939;28;20211;-70
2022/09/27 09:52:20;;;;;;;17.77;13.83;;;;;;;11.69;72.11;99275.66;5011929;28;20452;-68
2022/09/27 09:54:54;;;;;;;16.67;12.02;;;;;;;11.76;70.87;99271.13;5019154;28;20041;-69
2022/09/27 09:57:44;;;;;;;14.45;11.13;;;;;;;11.97;70.26;99256.63;5017681;28;20053;-68
2022/09/27 10:00:15;;;;;;;14.10;10.63;;;;;;;11.92;69.32;99277.47;5023941;28;20021;-68
2022/09/27 10:02:48;;;;;;;14.03;10.73;;;;;;;11.88;69.75;99270.69;5023910;28;20037;-68
2022/09/27 10:05:20;;;;;;;10.98;8.80;;;;;;;11.72;70.02;99272.97;5024079;28;20458;-68
2022/09/27 10:07:47;;;;;;;;;;;;;;;11.81;69.99;99268.38;5024445;28;20057;-69
2022/09/27 10:10:15;;;;;;;9.70;5.82;;;;;;;11.80;68.90;99257.16;5023513;28;19905;-68
2022/09/27 10:12:42;;;;;;;5.13;4.10;;;;;;;11.66;67.03;99261.97;5014525;28;20391;-69
2022/09/27 10:15:15;;;;;;;4.38;3.97;;;;;;;12.03;68.50;99273.72;5009199;28;20310;-68
2022/09/27 10:17:46;;;;;;;5.15;4.35;;;;;;;12.18;69.06;99247.22;5022066;28;20037;-69
2022/09/27 10:20:41;;;;;;;6.43;3.38;;;;;;;12.18;64.61;99249.81;5003779;28;20030;-69
2022/09/27 10:23:20;;;;;;;5.28;4.00;;;;;;;12.16;65.43;99264.63;5003276;28;20401;-69
2022/09/27 10:26:01;;;;;;;5.95;3.53;;;;;;;12.40;66.38;99238.69;5010593;28;20037;-69
2022/09/27 10:28:41;;;;;;;4.55;3.67;;;;;;;12.52;66.96;99251.22;5019453;28;20021;-69
2022/09/27 10:31:10;;;;;;;6.10;5.50;;;;;;;12.65;66.70;99248.16;5023722;28;20064;-69
2022/09/27 10:33:58;;;;;;;8.18;5.82;;;;;;;12.50;65.89;99236.56;5023438;28;20025;-69
2022/09/27 10:36:29;;;;;;;9.07;5.65;;;;;;;12.56;67.68;99252.78;5023477;28;20049;-68
2022/09/27 10:39:00;;;;;;;5.90;5.30;;;;;;;12.45;65.82;99243.72;5020015;28;20105;-68
2022/09/27 10:41:38;;;;;;;5.60;4.28;;;;;;;12.48;65.65;99228.84;5003801;28;20093;-68
2022/09/27 10:44:16;;;;;;;3.35;2.80;;;;;;;12.46;64.23;99254.03;4986599;28;20374;-68
2022/09/27 10:46:54;;;;;;;2.90;2.60;;;;;;;12.41;64.74;99240.38;5021207;28;20080;-68
2022/09/27 10:49:32;;;;;;;3.10;2.60;;;;;;;12.50;64.95;99245.25;5023351;28;20033;-68
2022/09/27 10:52:01;;;;;;;3.35;2.67;;;;;;;12.59;66.81;99236.25;5023281;28;20026;-68
2022/09/27 10:54:31;;;;;;;3.47;3.05;;;;;;;12.34;64.50;99239.75;5023365;28;20067;-68
2022/09/27 10:57:05;;;;;;;6.93;3.20;;;;;;;12.50;64.37;99241.78;5017765;28;20029;-68
2022/09/27 10:59:39;;;;;;;5.43;3.45;;;;;;;12.25;64.22;99227.94;5017976;28;20056;-67
2022/09/27 11:02:06;;;;;;;4.13;3.00;;;;;;;12.07;64.77;99237.22;5003961;28;20033;-69
2022/09/27 11:04:34;;;;;;;6.78;3.25;;;;;;;12.27;65.17;99240.88;5017872;28;20034;-68
2022/09/27 11:07:15;;;;;;;4.50;3.83;;;;;;;12.40;65.25;99236.09;5015473;28;20036;-68
2022/09/27 11:10:01;;;;;;;3.55;3.20;;;;;;;12.16;65.56;99230.03;5022171;28;20089;-70
2022/09/27 11:12:29;;;;;;;4.03;3.13;;;;;;;12.13;66.04;99230.97;5023218;28;20029;-68
2022/09/27 11:15:05;;;;;;;4.80;3.17;;;;;;;11.97;65.77;99224.63;5023049;28;20022;-69
2022/09/27 11:18:00;;;;;;;2.88;2.58;;;;;;;11.90;65.17;99206.63;5022941;28;20109;-69
2022/09/27 11:20:43;;;;;;;3.53;2.97;;;;;;;12.14;65.27;99208.44;5003459;28;20026;-68
2022/09/27 11:23:09;;;;;;;3.60;3.13;;;;;;;12.07;65.99;99218.19;5003427;28;20084;-68
2022/09/27 11:25:56;;;;;;;3.33;2.95;;;;;;;12.01;65.81;99221.00;5018959;28;20038;-67
2022/09/27 11:28:32;;;;;;;4.30;2.95;;;;;;;12.14;65.38;99221.44;5019125;28;20034;-68
2022/09/27 11:31:17;;;;;;;3.95;2.55;;;;;;;12.23;65.01;99211.56;5023819;28;20057;-68
2022/09/27 11:34:17;;;;;;;3.80;2.80;;;;;;;12.13;65.21;99197.22;5026615;28;20030;-69
2022/09/27 11:37:01;;;;;;;2.67;2.40;;;;;;;12.14;64.60;99213.66;5026144;28;20069;-69
2022/09/27 11:39:52;;;;;;;3.40;2.33;;;;;;;12.19;64.03;99209.16;5004298;28;20031;-67
2022/09/27 11:42:40;;;;;;;3.08;2.53;;;;;;;12.12;64.50;99200.72;5026477;28;20057;-68
2022/09/27 11:45:32;;;;;;;3.45;2.20;;;;;;;12.21;64.05;99213.38;5026521;28;20101;-68
2022/09/27 11:48:21;;;;;;;4.85;2.20;;;;;;;12.24;63.79;99202.88;5008582;28;20058;-69
2022/09/27 11:51:06;;;;;;;2.55;2.10;;;;;;;12.26;64.42;99206.25;5026634;28;20365;-68
2022/09/27 11:53:44;;;;;;;3.50;2.35;;;;;;;12.26;65.08;99201.06;5026403;28;20044;-68
2022/09/27 11:56:25;;;;;;;2.63;2.42;;;;;;;12.19;63.85;99191.81;5010940;28;20037;-69
2022/09/27 11:59:00;;;;;;;3.55;2.47;;;;;;;12.32;63.84;99194.81;5026498;28;20030;-68
2022/09/27 12:01:57;;;;;;;2.53;2.10;;;;;;;12.34;63.08;99184.34;5023057;28;20030;-68
2022/09/27 12:04:58;;;;;;;5.47;2.13;;;;;;;12.24;61.69;99194.22;5023322;28;20025;-68